Time;durP1;ratioP1;P1;durP2;ratioP2;P2;SDS_P1;SDS_P2;PMS_P1;PMS_P2;Temp;Humidity;BMP_temperature;BMP_pressure;BME280_temperature;BME280_humidity;BME280_pressure;Samples;Min_cycle;Max_cycle;Signal;HPM_P1;HPM_P2
2023/08/06 00:03:49;;;;;;;1.05;0.85;;;;;;;;;;10411633;28;20314;-74
2023/08/06 00:08:50;;;;;;;1.10;1.10;;;;;;;;;;10411062;28;20227;-76
2023/08/06 00:13:51;;;;;;;0.60;0.60;;;;;;;;;;10393256;28;20215;-75
2023/08/06 00:18:52;;;;;;;0.98;0.88;;;;;;;;;;10415649;28;20700;-75
2023/08/06 00:23:53;;;;;;;0.50;0.50;;;;;;;;;;10401086;28;20202;-76
2023/08/06 00:28:54;;;;;;;3.42;1.00;;;;;;;;;;10414795;28;20222;-76
2023/08/06 00:33:55;;;;;;;0.70;0.70;;;;;;;;;;10412630;28;20218;-75
2023/08/06 00:38:56;;;;;;;0.52;0.50;;;;;;;;;;10412761;28;21189;-76
2023/08/06 00:43:57;;;;;;;2.95;0.55;;;;;;;;;;10414851;28;20226;-74
2023/08/06 00:48:58;;;;;;;3.30;0.63;;;;;;;;;;10413287;28;20231;-75
2023/08/06 00:54:00;;;;;;;1.33;0.60;;;;;;;;;;10394242;28;20306;-74
2023/08/06 00:59:01;;;;;;;0.30;0.30;;;;;;;;;;10411956;28;20211;-74
2023/08/06 01:04:03;;;;;;;0.50;0.50;;;;;;;;;;10395868;28;20269;-75
2023/08/06 01:09:11;;;;;;;0.50;0.50;;;;;;;;;;10413465;28;20207;-75
2023/08/06 01:14:15;;;;;;;0.30;0.30;;;;;;;;;;10414405;28;20237;-75
2023/08/06 01:19:19;;;;;;;3.85;0.30;;;;;;;;;;10410826;28;20211;-75
2023/08/06 01:24:21;;;;;;;1.48;0.65;;;;;;;;;;10394852;28;20249;-74
2023/08/06 01:29:24;;;;;;;0.28;0.28;;;;;;;;;;10409382;28;20245;-75
2023/08/06 01:34:26;;;;;;;0.47;0.47;;;;;;;;;;10409863;28;20231;-74
2023/08/06 01:39:27;;;;;;;0.50;0.50;;;;;;;;;;10388305;28;20223;-74
2023/08/06 01:44:28;;;;;;;0.40;0.40;;;;;;;;;;10405499;28;20233;-74
2023/08/06 01:49:30;;;;;;;0.30;0.30;;;;;;;;;;10390987;28;20570;-74
2023/08/06 01:54:31;;;;;;;1.65;0.40;;;;;;;;;;10405627;28;20219;-73
2023/08/06 01:59:32;;;;;;;0.40;0.40;;;;;;;;;;10408350;28;20218;-73
2023/08/06 02:04:33;;;;;;;0.63;0.50;;;;;;;;;;10388463;28;20924;-75
2023/08/06 02:09:35;;;;;;;1.27;0.38;;;;;;;;;;10398689;28;20310;-74
2023/08/06 02:14:36;;;;;;;0.25;0.25;;;;;;;;;;10416552;28;20226;-72
2023/08/06 02:19:37;;;;;;;0.60;0.50;;;;;;;;;;10417728;28;20772;-74
2023/08/06 02:24:38;;;;;;;0.50;0.50;;;;;;;;;;10406939;28;20221;-75
2023/08/06 02:29:41;;;;;;;2.10;0.52;;;;;;;;;;10416035;28;20211;-74
2023/08/06 02:34:42;;;;;;;1.02;0.70;;;;;;;;;;10408710;28;20229;-74
2023/08/06 02:39:43;;;;;;;0.43;0.43;;;;;;;;;;10405291;28;20280;-72
2023/08/06 02:44:44;;;;;;;1.75;0.30;;;;;;;;;;10406051;28;20883;-74
2023/08/06 02:49:45;;;;;;;0.68;0.68;;;;;;;;;;10409446;28;20214;-74
2023/08/06 02:54:47;;;;;;;0.30;0.30;;;;;;;;;;10404517;28;20214;-73
2023/08/06 02:59:49;;;;;;;0.40;0.40;;;;;;;;;;10405945;28;20207;-73
2023/08/06 03:04:54;;;;;;;0.40;0.40;;;;;;;;;;10402021;28;20211;-75
2023/08/06 03:10:00;;;;;;;0.75;0.50;;;;;;;;;;10408603;28;20253;-74
2023/08/06 03:15:02;;;;;;;0.40;0.40;;;;;;;;;;10409687;28;20223;-74
2023/08/06 03:20:03;;;;;;;0.68;0.50;;;;;;;;;;10415279;28;20870;-74
2023/08/06 03:25:05;;;;;;;0.28;0.28;;;;;;;;;;10397717;28;20223;-74
2023/08/06 03:30:08;;;;;;;0.38;0.35;;;;;;;;;;10391717;28;20211;-74
2023/08/06 03:35:10;;;;;;;0.40;0.40;;;;;;;;;;10388787;28;20842;-74
2023/08/06 03:40:11;;;;;;;1.15;0.60;;;;;;;;;;10413747;28;20208;-72
2023/08/06 03:45:12;;;;;;;0.50;0.50;;;;;;;;;;10387070;28;20207;-74
2023/08/06 03:50:15;;;;;;;0.43;0.43;;;;;;;;;;10400689;28;20207;-72
2023/08/06 03:55:16;;;;;;;1.98;0.60;;;;;;;;;;10384531;28;20211;-76
2023/08/06 04:00:17;;;;;;;0.73;0.73;;;;;;;;;;10402452;28;20373;-72
2023/08/06 04:05:24;;;;;;;1.38;0.50;;;;;;;;;;10400779;28;20318;-74
2023/08/06 04:10:25;;;;;;;0.80;0.40;;;;;;;;;;10393834;28;20286;-71
2023/08/06 04:15:26;;;;;;;0.40;0.40;;;;;;;;;;10400717;28;20234;-74
2023/08/06 04:20:27;;;;;;;0.73;0.70;;;;;;;;;;10391902;28;20234;-73
2023/08/06 04:25:28;;;;;;;0.52;0.50;;;;;;;;;;10381442;28;20252;-74
2023/08/06 04:30:30;;;;;;;0.40;0.40;;;;;;;;;;10403345;28;20226;-74
2023/08/06 04:35:31;;;;;;;0.85;0.50;;;;;;;;;;10412131;28;20252;-74
2023/08/06 04:40:36;;;;;;;0.40;0.40;;;;;;;;;;10392152;28;20219;-75
2023/08/06 04:45:37;;;;;;;0.43;0.43;;;;;;;;;;10406443;28;20219;-72
2023/08/06 04:50:38;;;;;;;0.70;0.70;;;;;;;;;;10405455;28;20238;-74
2023/08/06 04:55:39;;;;;;;1.00;1.00;;;;;;;;;;10388458;28;20372;-74
2023/08/06 05:00:41;;;;;;;0.65;0.65;;;;;;;;;;10411105;28;20249;-73
2023/08/06 05:05:42;;;;;;;0.40;0.40;;;;;;;;;;10409354;28;20725;-73
2023/08/06 05:10:44;;;;;;;2.17;0.90;;;;;;;;;;10408327;28;20226;-73
2023/08/06 05:15:46;;;;;;;1.55;0.70;;;;;;;;;;10404928;28;20233;-73
2023/08/06 05:20:47;;;;;;;0.85;0.60;;;;;;;;;;10395336;28;20229;-73
2023/08/06 05:25:48;;;;;;;1.48;0.98;;;;;;;;;;10389239;28;20218;-75
2023/08/06 05:30:49;;;;;;;0.90;0.77;;;;;;;;;;10390915;28;20207;-72
2023/08/06 05:35:50;;;;;;;0.70;0.70;;;;;;;;;;10371048;28;20272;-73
2023/08/06 05:40:51;;;;;;;1.05;0.80;;;;;;;;;;10398875;28;20242;-74
2023/08/06 05:45:52;;;;;;;0.88;0.88;;;;;;;;;;10408657;28;20640;-75
2023/08/06 05:50:53;;;;;;;0.80;0.80;;;;;;;;;;10402494;28;20226;-74
2023/08/06 05:55:54;;;;;;;1.25;1.20;;;;;;;;;;10400095;28;20313;-75
2023/08/06 06:00:55;;;;;;;1.67;1.45;;;;;;;;;;10401522;28;20384;-71
2023/08/06 06:05:56;;;;;;;2.13;1.30;;;;;;;;;;10397383;28;20599;-72
2023/08/06 06:10:58;;;;;;;0.93;0.93;;;;;;;;;;10413127;28;20297;-74
2023/08/06 06:15:59;;;;;;;1.10;1.08;;;;;;;;;;10417020;28;20226;-73
2023/08/06 06:21:00;;;;;;;0.95;0.95;;;;;;;;;;10374533;28;20838;-75
2023/08/06 06:26:01;;;;;;;1.27;1.10;;;;;;;;;;10412068;28;20218;-74
2023/08/06 06:31:03;;;;;;;1.90;1.63;;;;;;;;;;10414436;28;20268;-75
2023/08/06 06:36:04;;;;;;;1.23;1.23;;;;;;;;;;10418757;28;21390;-74
2023/08/06 06:41:06;;;;;;;2.28;1.20;;;;;;;;;;10404098;28;20849;-75
2023/08/06 06:46:07;;;;;;;3.55;1.13;;;;;;;;;;10378495;28;20235;-74
2023/08/06 06:51:08;;;;;;;2.65;1.45;;;;;;;;;;10377515;28;20223;-73
2023/08/06 06:56:09;;;;;;;3.08;1.45;;;;;;;;;;10400215;28;20287;-74
2023/08/06 07:01:11;;;;;;;1.30;1.30;;;;;;;;;;10399700;28;20222;-78
2023/08/06 07:06:12;;;;;;;1.27;1.20;;;;;;;;;;10399310;28;20263;-75
2023/08/06 07:11:14;;;;;;;1.25;1.25;;;;;;;;;;10393617;28;20296;-75
2023/08/06 07:16:15;;;;;;;0.88;0.88;;;;;;;;;;10396856;28;23784;-75
2023/08/06 07:21:16;;;;;;;0.90;0.90;;;;;;;;;;10376134;28;20309;-72
2023/08/06 07:26:17;;;;;;;1.00;1.00;;;;;;;;;;10405894;28;20214;-75
2023/08/06 07:31:18;;;;;;;1.13;0.90;;;;;;;;;;10401654;28;21523;-76
2023/08/06 07:36:19;;;;;;;1.00;1.00;;;;;;;;;;10411554;28;20226;-75
2023/08/06 07:41:20;;;;;;;3.53;1.15;;;;;;;;;;10381866;28;20203;-74
2023/08/06 07:46:21;;;;;;;0.75;0.75;;;;;;;;;;10416069;28;20223;-74
2023/08/06 07:51:22;;;;;;;1.80;0.80;;;;;;;;;;10386757;28;20215;-76
2023/08/06 07:56:24;;;;;;;1.92;0.77;;;;;;;;;;10412564;28;20233;-74
2023/08/06 08:01:25;;;;;;;0.65;0.65;;;;;;;;;;10398001;28;20246;-75
2023/08/06 08:06:26;;;;;;;0.70;0.70;;;;;;;;;;10423109;28;20221;-74
2023/08/06 08:11:27;;;;;;;0.60;0.60;;;;;;;;;;10406271;28;23277;-75
2023/08/06 08:16:28;;;;;;;0.70;0.70;;;;;;;;;;10402830;28;20295;-74
2023/08/06 08:21:29;;;;;;;1.00;1.00;;;;;;;;;;10409371;28;20225;-74
2023/08/06 08:26:30;;;;;;;0.82;0.82;;;;;;;;;;10420937;28;20219;-77
2023/08/06 08:31:38;;;;;;;1.15;0.70;;;;;;;;;;10414754;28;20938;-73
2023/08/06 08:36:41;;;;;;;1.10;1.00;;;;;;;;;;10411348;28;20231;-74
2023/08/06 08:41:42;;;;;;;1.15;0.70;;;;;;;;;;10413304;28;20633;-74
2023/08/06 08:46:43;;;;;;;1.05;1.00;;;;;;;;;;10411137;28;20219;-76
2023/08/06 08:51:46;;;;;;;0.70;0.70;;;;;;;;;;10399466;28;20694;-75
2023/08/06 08:56:47;;;;;;;0.55;0.55;;;;;;;;;;10399055;28;20276;-77
2023/08/06 09:01:52;;;;;;;1.00;0.93;;;;;;;;;;10382635;28;20237;-76
2023/08/06 09:06:58;;;;;;;0.70;0.68;;;;;;;;;;10398408;28;20843;-76
2023/08/06 09:12:02;;;;;;;0.80;0.80;;;;;;;;;;10399236;28;20563;-76
2023/08/06 09:17:04;;;;;;;0.70;0.70;;;;;;;;;;10403316;28;20222;-74
2023/08/06 09:22:10;;;;;;;1.10;0.80;;;;;;;;;;10413939;28;20796;-75
2023/08/06 09:27:15;;;;;;;0.95;0.90;;;;;;;;;;10415593;28;20215;-77
2023/08/06 09:32:16;;;;;;;0.68;0.68;;;;;;;;;;10410430;28;20376;-76
2023/08/06 09:37:17;;;;;;;0.63;0.63;;;;;;;;;;10415455;28;20226;-76
2023/08/06 09:42:18;;;;;;;0.77;0.77;;;;;;;;;;10422615;28;20237;-76
2023/08/06 09:47:22;;;;;;;0.85;0.85;;;;;;;;;;10422356;28;20215;-73
2023/08/06 09:52:23;;;;;;;1.55;0.80;;;;;;;;;;10422162;28;20258;-75
2023/08/06 09:57:25;;;;;;;0.90;0.90;;;;;;;;;;10413905;28;20631;-77
2023/08/06 10:02:27;;;;;;;0.70;0.70;;;;;;;;;;10419823;28;20821;-74
2023/08/06 10:07:29;;;;;;;1.70;1.60;;;;;;;;;;10418416;28;20223;-75
2023/08/06 10:12:32;;;;;;;1.45;1.40;;;;;;;;;;10413886;28;20281;-76
2023/08/06 10:17:34;;;;;;;2.15;1.80;;;;;;;;;;10417202;28;20215;-76
2023/08/06 10:22:35;;;;;;;1.45;1.35;;;;;;;;;;10404046;28;20226;-75
2023/08/06 10:27:56;;;;;;;1.20;1.20;;;;;;;;;;10406020;28;20744;-74
2023/08/06 10:33:00;;;;;;;1.40;1.30;;;;;;;;;;10400358;28;20957;-76
2023/08/06 10:38:04;;;;;;;4.63;1.58;;;;;;;;;;10406508;28;20734;-72
2023/08/06 10:43:10;;;;;;;1.55;1.50;;;;;;;;;;10377692;28;20294;-74
2023/08/06 10:48:11;;;;;;;1.38;1.38;;;;;;;;;;10399237;28;20708;-72
2023/08/06 10:53:13;;;;;;;1.10;1.10;;;;;;;;;;10393885;28;20223;-73
2023/08/06 10:58:17;;;;;;;1.52;1.52;;;;;;;;;;10407480;28;20692;-73
2023/08/06 11:03:18;;;;;;;1.20;1.20;;;;;;;;;;10399648;28;20211;-72
2023/08/06 11:08:26;;;;;;;1.13;1.13;;;;;;;;;;10403633;28;20214;-75
2023/08/06 11:13:27;;;;;;;1.30;1.30;;;;;;;;;;10400654;28;20717;-72
2023/08/06 11:18:29;;;;;;;5.63;1.52;;;;;;;;;;10383987;28;21204;-73
2023/08/06 11:23:30;;;;;;;2.35;1.50;;;;;;;;;;10385147;28;20338;-74
2023/08/06 11:28:31;;;;;;;1.35;1.35;;;;;;;;;;10418362;28;20249;-73
2023/08/06 11:33:33;;;;;;;1.38;1.38;;;;;;;;;;10398720;28;20598;-74
2023/08/06 11:38:34;;;;;;;1.20;1.20;;;;;;;;;;10400416;28;20734;-72
2023/08/06 11:43:35;;;;;;;1.02;1.02;;;;;;;;;;10410062;28;20227;-73
2023/08/06 11:48:51;;;;;;;1.25;1.25;;;;;;;;;;10404320;28;20219;-74
2023/08/06 11:53:54;;;;;;;0.90;0.90;;;;;;;;;;10388346;28;20225;-74
2023/08/06 11:58:56;;;;;;;1.13;1.13;;;;;;;;;;10389536;28;20332;-72
2023/08/06 12:04:00;;;;;;;1.00;1.00;;;;;;;;;;10398647;28;20215;-74
2023/08/06 12:09:01;;;;;;;1.80;1.08;;;;;;;;;;10388086;28;20349;-75
2023/08/06 12:14:02;;;;;;;0.77;0.77;;;;;;;;;;10281811;28;20234;-74
2023/08/06 12:19:04;;;;;;;1.35;0.88;;;;;;;;;;10298706;28;20230;-72
2023/08/06 12:24:07;;;;;;;2.83;0.85;;;;;;;;;;10293756;28;20334;-74
2023/08/06 12:29:08;;;;;;;0.60;0.60;;;;;;;;;;10274102;28;20715;-73
2023/08/06 12:34:09;;;;;;;0.70;0.70;;;;;;;;;;10296960;28;20324;-74
2023/08/06 12:39:10;;;;;;;1.98;0.85;;;;;;;;;;10277200;28;20218;-73
2023/08/06 12:44:11;;;;;;;0.73;0.73;;;;;;;;;;10267377;28;20740;-75
2023/08/06 12:49:12;;;;;;;0.73;0.73;;;;;;;;;;10283350;28;20337;-76
2023/08/06 12:54:13;;;;;;;0.60;0.60;;;;;;;;;;10295625;28;20227;-74
2023/08/06 12:59:15;;;;;;;1.40;0.75;;;;;;;;;;10303420;28;21102;-74
2023/08/06 13:04:16;;;;;;;0.60;0.60;;;;;;;;;;10297373;28;20225;-77
2023/08/06 13:09:17;;;;;;;0.60;0.60;;;;;;;;;;10305349;28;20558;-74
2023/08/06 13:14:19;;;;;;;0.68;0.68;;;;;;;;;;10302658;28;20329;-74
2023/08/06 13:19:20;;;;;;;0.50;0.50;;;;;;;;;;10302987;28;20717;-75
2023/08/06 13:24:21;;;;;;;0.57;0.57;;;;;;;;;;10310152;28;20219;-76
2023/08/06 13:29:22;;;;;;;0.88;0.88;;;;;;;;;;10289051;28;21264;-75
2023/08/06 13:34:23;;;;;;;0.60;0.60;;;;;;;;;;10297975;28;20253;-78
2023/08/06 13:39:24;;;;;;;0.55;0.55;;;;;;;;;;10289888;28;20353;-78
2023/08/06 13:44:26;;;;;;;0.98;0.52;;;;;;;;;;10301626;28;20334;-78
2023/08/06 13:49:27;;;;;;;0.40;0.40;;;;;;;;;;10299403;28;20853;-77
2023/08/06 13:54:28;;;;;;;0.50;0.50;;;;;;;;;;10307095;28;20223;-75
2023/08/06 13:59:29;;;;;;;0.50;0.50;;;;;;;;;;10301216;28;20945;-73
2023/08/06 14:04:30;;;;;;;0.40;0.40;;;;;;;;;;10285285;28;20246;-76
2023/08/06 14:09:32;;;;;;;0.40;0.40;;;;;;;;;;10299526;28;20237;-76
2023/08/06 14:14:33;;;;;;;0.52;0.52;;;;;;;;;;10306514;28;20234;-76
2023/08/06 14:19:34;;;;;;;0.40;0.40;;;;;;;;;;10296383;28;20616;-76
2023/08/06 14:24:35;;;;;;;0.93;0.40;;;;;;;;;;10301787;28;20243;-75
2023/08/06 14:29:36;;;;;;;0.40;0.40;;;;;;;;;;10288028;28;20333;-76
2023/08/06 14:34:37;;;;;;;0.65;0.65;;;;;;;;;;10287293;28;20230;-74
2023/08/06 14:39:38;;;;;;;0.50;0.50;;;;;;;;;;10278047;28;20219;-77
2023/08/06 14:44:41;;;;;;;0.90;0.50;;;;;;;;;;10276134;28;20329;-74
2023/08/06 14:49:42;;;;;;;0.60;0.60;;;;;;;;;;10285328;28;20234;-76
2023/08/06 14:54:43;;;;;;;0.50;0.50;;;;;;;;;;10283249;28;20223;-76
2023/08/06 14:59:44;;;;;;;1.70;0.60;;;;;;;;;;10279000;28;20410;-77
2023/08/06 15:04:45;;;;;;;0.50;0.50;;;;;;;;;;10286635;28;20229;-73
2023/08/06 15:09:46;;;;;;;0.60;0.60;;;;;;;;;;10286316;28;20226;-79
2023/08/06 15:14:47;;;;;;;0.40;0.40;;;;;;;;;;10267631;28;20321;-74
2023/08/06 15:19:48;;;;;;;0.50;0.50;;;;;;;;;;10273369;28;20215;-77
2023/08/06 15:24:49;;;;;;;0.40;0.40;;;;;;;;;;10283548;28;20218;-75
2023/08/06 15:29:50;;;;;;;1.30;0.45;;;;;;;;;;10275458;28;20229;-76
2023/08/06 15:34:51;;;;;;;0.50;0.50;;;;;;;;;;10284977;28;20234;-75
2023/08/06 15:39:53;;;;;;;0.50;0.50;;;;;;;;;;10276193;28;20218;-75
2023/08/06 15:44:54;;;;;;;0.60;0.60;;;;;;;;;;10286027;28;20280;-76
2023/08/06 15:49:55;;;;;;;0.50;0.50;;;;;;;;;;10301486;28;21740;-76
2023/08/06 15:54:59;;;;;;;0.85;0.85;;;;;;;;;;10288631;28;20266;-78
2023/08/06 16:00:00;;;;;;;0.50;0.50;;;;;;;;;;10292193;28;20246;-77
2023/08/06 16:05:01;;;;;;;5.25;0.70;;;;;;;;;;10293379;28;20332;-75
2023/08/06 16:10:02;;;;;;;0.50;0.50;;;;;;;;;;10304604;28;20214;-77
2023/08/06 16:15:04;;;;;;;0.70;0.70;;;;;;;;;;10309114;28;20230;-75
2023/08/06 16:20:06;;;;;;;0.60;0.60;;;;;;;;;;10303131;28;20202;-75
2023/08/06 16:25:11;;;;;;;0.70;0.70;;;;;;;;;;10304503;28;20218;-78
2023/08/06 16:30:14;;;;;;;1.20;1.20;;;;;;;;;;10308005;28;20250;-78
2023/08/06 16:35:15;;;;;;;0.88;0.88;;;;;;;;;;10298363;28;20705;-77
2023/08/06 16:40:17;;;;;;;1.10;1.10;;;;;;;;;;10287997;28;20854;-76
2023/08/06 16:45:18;;;;;;;0.95;0.50;;;;;;;;;;10296325;28;22019;-75
2023/08/06 16:50:19;;;;;;;1.35;0.50;;;;;;;;;;10303948;28;20772;-77
2023/08/06 16:55:20;;;;;;;1.48;0.50;;;;;;;;;;10299624;28;20211;-74
2023/08/06 17:00:22;;;;;;;1.92;0.80;;;;;;;;;;10299107;28;20595;-77
2023/08/06 17:05:23;;;;;;;0.65;0.65;;;;;;;;;;10309129;28;20307;-75
2023/08/06 17:10:24;;;;;;;1.10;0.52;;;;;;;;;;10307388;28;20344;-75
2023/08/06 17:15:25;;;;;;;0.70;0.70;;;;;;;;;;10292121;28;20284;-77
2023/08/06 17:20:27;;;;;;;0.50;0.50;;;;;;;;;;10303303;28;20231;-76
2023/08/06 17:25:28;;;;;;;0.60;0.60;;;;;;;;;;10280925;28;20223;-75
2023/08/06 17:30:29;;;;;;;0.57;0.57;;;;;;;;;;10288125;28;21789;-77
2023/08/06 17:35:32;;;;;;;0.50;0.50;;;;;;;;;;10305295;28;20798;-74
2023/08/06 17:40:33;;;;;;;0.60;0.60;;;;;;;;;;10288203;28;21644;-74
2023/08/06 17:45:34;;;;;;;0.88;0.85;;;;;;;;;;10305614;28;20211;-75
2023/08/06 17:50:35;;;;;;;0.90;0.75;;;;;;;;;;10304250;28;20318;-77
2023/08/06 17:55:38;;;;;;;0.80;0.80;;;;;;;;;;10285163;28;20273;-76
2023/08/06 18:00:39;;;;;;;1.10;1.10;;;;;;;;;;10296820;28;20231;-76
2023/08/06 18:05:40;;;;;;;0.70;0.70;;;;;;;;;;10304429;28;21199;-76
2023/08/06 18:10:41;;;;;;;0.70;0.70;;;;;;;;;;10298818;28;20300;-74
2023/08/06 18:15:42;;;;;;;1.02;1.02;;;;;;;;;;10285786;28;20234;-75
2023/08/06 18:20:43;;;;;;;1.48;1.48;;;;;;;;;;10292799;28;20238;-75
2023/08/06 18:25:44;;;;;;;1.73;1.55;;;;;;;;;;10290397;28;20284;-75
2023/08/06 18:30:45;;;;;;;1.25;1.25;;;;;;;;;;10306067;28;20722;-73
2023/08/06 18:35:46;;;;;;;1.98;1.80;;;;;;;;;;10300302;28;20572;-77
2023/08/06 18:40:47;;;;;;;1.40;1.40;;;;;;;;;;10305501;28;20310;-77
2023/08/06 18:45:48;;;;;;;2.22;1.50;;;;;;;;;;10306954;28;21500;-75
2023/08/06 18:50:49;;;;;;;1.08;1.08;;;;;;;;;;10303735;28;20740;-77
2023/08/06 18:55:51;;;;;;;3.70;1.33;;;;;;;;;;10296527;28;20491;-76
2023/08/06 19:00:56;;;;;;;1.40;1.40;;;;;;;;;;10287608;28;20265;-75
2023/08/06 19:06:04;;;;;;;1.85;1.67;;;;;;;;;;10298223;28;20230;-77
2023/08/06 19:11:05;;;;;;;1.33;1.27;;;;;;;;;;10291279;28;20224;-76
2023/08/06 19:16:06;;;;;;;1.35;1.30;;;;;;;;;;10277772;28;22226;-77
2023/08/06 19:21:07;;;;;;;1.50;1.50;;;;;;;;;;10289326;28;20229;-75
2023/08/06 19:26:08;;;;;;;1.25;1.25;;;;;;;;;;10291496;28;20307;-74
2023/08/06 19:31:09;;;;;;;1.23;1.23;;;;;;;;;;10272966;28;20935;-75
2023/08/06 19:36:10;;;;;;;1.30;1.17;;;;;;;;;;10294393;28;21052;-76
2023/08/06 19:41:11;;;;;;;1.20;1.20;;;;;;;;;;10291354;28;20222;-78
2023/08/06 19:46:12;;;;;;;1.30;1.30;;;;;;;;;;10300077;28;20214;-73
2023/08/06 19:51:14;;;;;;;1.40;1.30;;;;;;;;;;10296624;28;20245;-74
2023/08/06 19:56:16;;;;;;;1.23;1.23;;;;;;;;;;10305269;28;20230;-78
2023/08/06 20:01:17;;;;;;;1.00;1.00;;;;;;;;;;10298369;28;20210;-75
2023/08/06 20:06:18;;;;;;;5.82;1.35;;;;;;;;;;10315283;28;20218;-76
2023/08/06 20:11:19;;;;;;;0.88;0.88;;;;;;;;;;10305227;28;20226;-74
2023/08/06 20:16:20;;;;;;;2.85;0.98;;;;;;;;;;10327295;28;20564;-73
2023/08/06 20:21:21;;;;;;;1.25;1.15;;;;;;;;;;10315027;28;21179;-76
2023/08/06 20:26:22;;;;;;;1.05;0.85;;;;;;;;;;10313904;28;21377;-75
2023/08/06 20:31:23;;;;;;;0.70;0.70;;;;;;;;;;10319466;28;20231;-75
2023/08/06 20:36:24;;;;;;;0.90;0.90;;;;;;;;;;10306151;28;20382;-74
2023/08/06 20:41:25;;;;;;;3.72;0.60;;;;;;;;;;10378904;28;20286;-77
2023/08/06 20:46:26;;;;;;;0.77;0.77;;;;;;;;;;10423559;28;20229;-76
2023/08/06 20:51:28;;;;;;;0.65;0.65;;;;;;;;;;10403702;28;21850;-75
2023/08/06 20:56:29;;;;;;;0.70;0.70;;;;;;;;;;10406500;28;20224;-75
2023/08/06 21:01:30;;;;;;;2.38;1.05;;;;;;;;;;10411188;28;20221;-76
2023/08/06 21:06:31;;;;;;;0.57;0.57;;;;;;;;;;10398072;28;20218;-75
2023/08/06 21:11:32;;;;;;;0.75;0.55;;;;;;;;;;10420123;28;20226;-75
2023/08/06 21:16:33;;;;;;;0.47;0.47;;;;;;;;;;10426285;28;20781;-75
2023/08/06 21:21:34;;;;;;;1.63;0.65;;;;;;;;;;10423114;28;20214;-76
2023/08/06 21:26:35;;;;;;;4.90;0.60;;;;;;;;;;10413164;28;20218;-75
2023/08/06 21:31:36;;;;;;;0.40;0.40;;;;;;;;;;10420042;28;20282;-73
2023/08/06 21:36:37;;;;;;;0.57;0.40;;;;;;;;;;10412894;28;20226;-75
2023/08/06 21:41:38;;;;;;;1.05;0.70;;;;;;;;;;10399646;28;20407;-77
2023/08/06 21:46:40;;;;;;;0.60;0.60;;;;;;;;;;10417391;28;20697;-77
2023/08/06 21:51:41;;;;;;;0.63;0.63;;;;;;;;;;10410421;28;20776;-75
2023/08/06 21:56:42;;;;;;;0.50;0.50;;;;;;;;;;10418443;28;20214;-75
2023/08/06 22:01:43;;;;;;;0.50;0.50;;;;;;;;;;10405118;28;20230;-75
2023/08/06 22:06:44;;;;;;;0.45;0.45;;;;;;;;;;10407584;28;20220;-74
2023/08/06 22:11:45;;;;;;;0.45;0.45;;;;;;;;;;10412521;28;20222;-75
2023/08/06 22:16:47;;;;;;;0.60;0.60;;;;;;;;;;10394682;28;20220;-76
2023/08/06 22:21:48;;;;;;;0.70;0.70;;;;;;;;;;10408567;28;21228;-74
2023/08/06 22:26:50;;;;;;;0.90;0.90;;;;;;;;;;10410908;28;20219;-76
2023/08/06 22:31:51;;;;;;;0.60;0.60;;;;;;;;;;10413179;28;20216;-77
2023/08/06 22:36:52;;;;;;;0.70;0.52;;;;;;;;;;10394147;28;20227;-76
2023/08/06 22:41:53;;;;;;;0.80;0.75;;;;;;;;;;10401650;28;20302;-76
2023/08/06 22:46:54;;;;;;;1.95;0.65;;;;;;;;;;10397831;28;20309;-76
2023/08/06 22:51:55;;;;;;;0.70;0.70;;;;;;;;;;10416806;28;20218;-75
2023/08/06 22:56:57;;;;;;;0.60;0.50;;;;;;;;;;10420699;28;20222;-75
2023/08/06 23:01:58;;;;;;;0.82;0.82;;;;;;;;;;10418205;28;20217;-75
2023/08/06 23:06:59;;;;;;;0.98;0.40;;;;;;;;;;10419726;28;20230;-74
2023/08/06 23:12:00;;;;;;;0.50;0.50;;;;;;;;;;10400625;28;20742;-74
2023/08/06 23:17:01;;;;;;;0.50;0.50;;;;;;;;;;10415268;28;20221;-74
2023/08/06 23:22:02;;;;;;;0.40;0.40;;;;;;;;;;10415546;28;20263;-73
2023/08/06 23:27:04;;;;;;;0.57;0.57;;;;;;;;;;10417959;28;20836;-73
2023/08/06 23:32:05;;;;;;;4.15;0.60;;;;;;;;;;10418505;28;20219;-74
2023/08/06 23:37:06;;;;;;;1.50;0.73;;;;;;;;;;10413352;28;20631;-74
2023/08/06 23:42:07;;;;;;;3.22;1.25;;;;;;;;;;10408307;28;20210;-74
2023/08/06 23:47:08;;;;;;;3.20;0.90;;;;;;;;;;10397390;28;20222;-76
2023/08/06 23:52:09;;;;;;;1.85;0.80;;;;;;;;;;10416322;28;20224;-72
2023/08/06 23:57:10;;;;;;;0.73;0.60;;;;;;;;;;10398950;28;20353;-75
